createdAt,value
2019-04-11T00:01:36.727Z,6.20
2019-04-11T00:04:01.897Z,4.60
2019-04-11T00:06:33.831Z,4.60
2019-04-11T00:09:08.819Z,4.50
2019-04-11T00:11:39.388Z,4.50
2019-04-11T00:14:11.560Z,4.50
2019-04-11T00:16:42.254Z,4.50
2019-04-11T00:19:13.679Z,4.50
2019-04-11T00:21:45.244Z,4.50
2019-04-11T00:24:15.784Z,4.40
2019-04-11T00:26:46.579Z,4.40
2019-04-11T00:29:18.397Z,4.30
2019-04-11T00:31:49.531Z,4.30
2019-04-11T00:34:20.632Z,4.40
2019-04-11T00:36:51.225Z,4.30
2019-04-11T00:39:21.715Z,4.30
2019-04-11T00:41:52.414Z,4.30
2019-04-11T00:44:23.084Z,4.30
2019-04-11T00:46:53.609Z,4.30
2019-04-11T00:49:24.251Z,4.30
2019-04-11T00:51:54.741Z,4.20
2019-04-11T00:54:25.445Z,4.20
2019-04-11T00:56:56.761Z,4.10
2019-04-11T00:59:28.584Z,4.10
2019-04-11T01:01:59.153Z,4.10
2019-04-11T01:04:30.185Z,4.00
2019-04-11T01:07:00.780Z,4.00
2019-04-11T01:09:32.598Z,4.00
2019-04-11T01:12:03.236Z,4.00
2019-04-11T01:14:34.173Z,3.90
2019-04-11T01:17:07.507Z,3.90
2019-04-11T01:19:38.619Z,3.90
2019-04-11T01:22:09.765Z,3.90
2019-04-11T01:24:40.252Z,3.80
2019-04-11T01:27:11.794Z,3.80
2019-04-11T01:29:42.294Z,3.80
2019-04-11T01:32:13.907Z,3.80
2019-04-11T01:34:44.700Z,3.80
2019-04-11T01:37:15.554Z,3.80
2019-04-11T01:39:54.243Z,3.80
2019-04-11T01:42:25.083Z,3.80
2019-04-11T01:44:56.916Z,3.80
2019-04-11T01:47:59.455Z,3.80
2019-04-11T01:50:32.815Z,3.70
2019-04-11T01:53:03.662Z,3.70
2019-04-11T01:55:34.786Z,3.70
2019-04-11T01:58:06.668Z,3.70
2019-04-11T02:01:02.237Z,3.70
2019-04-11T02:04:09.873Z,3.70
2019-04-11T02:06:40.490Z,3.70
2019-04-11T02:09:15.846Z,3.70
2019-04-11T02:11:47.693Z,3.70
2019-04-11T02:14:20.737Z,3.70
2019-04-11T02:16:52.024Z,3.60
2019-04-11T02:19:23.778Z,3.60
2019-04-11T02:21:56.310Z,3.60
2019-04-11T02:24:45.845Z,3.60
2019-04-11T02:27:21.034Z,3.60
2019-04-11T02:29:51.650Z,3.60
2019-04-11T02:32:25.431Z,3.50
2019-04-11T02:34:58.955Z,3.50
2019-04-11T02:37:29.232Z,3.50
2019-04-11T02:40:00.161Z,3.50
2019-04-11T02:42:33.017Z,3.50
2019-04-11T02:45:19.586Z,3.40
2019-04-11T02:47:39.141Z,3.40
2019-04-11T02:50:10.407Z,3.40
2019-04-11T02:52:42.210Z,3.40
2019-04-11T02:55:14.471Z,3.40
2019-04-11T02:57:46.035Z,3.30
2019-04-11T03:00:18.617Z,3.30
2019-04-11T03:02:52.289Z,3.30
2019-04-11T03:05:22.305Z,3.30
2019-04-11T03:07:54.092Z,3.30
2019-04-11T03:10:24.962Z,3.30
2019-04-11T03:12:56.744Z,3.30
2019-04-11T03:15:46.349Z,3.30
2019-04-11T03:18:02.934Z,3.30
2019-04-11T03:20:39.546Z,3.30
2019-04-11T03:23:08.044Z,3.30
2019-04-11T03:25:38.513Z,3.20
2019-04-11T03:28:13.735Z,3.20
2019-04-11T03:30:59.244Z,3.20
2019-04-11T03:34:09.542Z,3.20
2019-04-11T03:38:44.273Z,3.30
2019-04-11T03:41:14.219Z,3.20
2019-04-11T03:43:33.795Z,3.20
2019-04-11T03:46:16.399Z,3.20
2019-04-11T03:48:40.765Z,3.20
2019-04-11T03:51:01.863Z,3.10
2019-04-11T03:53:34.291Z,3.10
2019-04-11T03:56:05.268Z,3.10
2019-04-11T03:58:37.175Z,3.10
2019-04-11T04:01:10.907Z,3.00
2019-04-11T04:03:40.057Z,2.90
2019-04-11T04:06:10.664Z,2.80
2019-04-11T04:08:42.356Z,2.80
2019-04-11T04:11:19.060Z,2.80
2019-04-11T04:14:17.221Z,2.80
2019-04-11T04:17:06.448Z,2.80
2019-04-11T04:19:54.813Z,2.80
2019-04-11T04:22:32.910Z,2.80
2019-04-11T04:25:04.399Z,2.70
2019-04-11T04:27:35.406Z,2.70
2019-04-11T04:30:08.620Z,2.70
2019-04-11T04:32:40.563Z,2.60
2019-04-11T04:35:16.798Z,2.60
2019-04-11T04:37:47.460Z,2.60
2019-04-11T04:40:35.579Z,2.60
2019-04-11T04:42:54.442Z,2.50
2019-04-11T04:45:23.875Z,2.50
2019-04-11T04:48:02.381Z,2.50
2019-04-11T04:50:28.518Z,2.40
2019-04-11T04:53:00.941Z,2.40
2019-04-11T04:55:32.608Z,2.40
2019-04-11T04:58:04.828Z,2.40
2019-04-11T05:00:35.423Z,2.40
2019-04-11T05:03:07.498Z,2.30
2019-04-11T05:05:38.394Z,2.30
2019-04-11T05:08:10.668Z,2.30
2019-04-11T05:10:41.536Z,2.20
2019-04-11T05:13:13.649Z,2.30
2019-04-11T05:15:45.388Z,2.30
2019-04-11T05:18:18.048Z,2.30
2019-04-11T05:20:49.311Z,2.30
2019-04-11T05:23:19.783Z,2.30
2019-04-11T05:25:50.847Z,2.30
2019-04-11T05:28:21.515Z,2.30
2019-04-11T05:30:53.144Z,2.40
2019-04-11T05:33:23.698Z,2.30
2019-04-11T05:35:54.301Z,2.30
2019-04-11T05:38:25.258Z,2.30
2019-04-11T05:40:56.662Z,2.40
2019-04-11T05:43:31.437Z,2.30
2019-04-11T05:46:00.271Z,2.30
2019-04-11T05:48:50.652Z,2.30
2019-04-11T05:51:23.504Z,2.30
2019-04-11T05:53:54.605Z,2.30
2019-04-11T05:56:30.933Z,2.40
2019-04-11T05:59:14.775Z,2.30
2019-04-11T06:01:48.817Z,2.30
2019-04-11T06:04:30.254Z,2.40
2019-04-11T06:07:23.145Z,2.40
2019-04-11T06:09:56.585Z,2.40
2019-04-11T06:12:39.853Z,2.40
2019-04-11T06:15:21.510Z,2.40
2019-04-11T06:17:52.365Z,2.50
2019-04-11T06:20:39.979Z,2.50
2019-04-11T06:23:21.280Z,2.60
2019-04-11T06:26:23.084Z,2.70
2019-04-11T06:28:57.075Z,2.50
2019-04-11T06:31:52.632Z,2.50
2019-04-11T06:34:25.542Z,2.60
2019-04-11T06:37:14.919Z,2.60
2019-04-11T06:39:53.956Z,2.60
2019-04-11T06:42:39.889Z,2.60
2019-04-11T06:45:29.316Z,2.70
2019-04-11T06:48:26.284Z,2.60
2019-04-11T06:51:16.159Z,2.80
2019-04-11T06:54:06.358Z,2.80
2019-04-11T06:56:43.797Z,2.80
2019-04-11T06:59:20.773Z,3.00
2019-04-11T07:01:51.573Z,3.10
2019-04-11T07:04:25.445Z,3.10
2019-04-11T07:06:56.857Z,3.10
2019-04-11T07:09:53.446Z,3.00
2019-04-11T07:12:43.173Z,3.10
2019-04-11T07:15:19.385Z,3.00
2019-04-11T07:18:07.651Z,3.00
2019-04-11T07:20:58.215Z,3.20
2019-04-11T07:23:47.039Z,3.30
2019-04-11T07:26:37.306Z,3.30
2019-04-11T07:29:27.041Z,3.30
2019-04-11T07:32:16.202Z,3.20
2019-04-11T07:35:19.318Z,3.40
2019-04-11T07:37:53.275Z,3.30
2019-04-11T07:40:43.078Z,3.50
2019-04-11T07:43:31.444Z,3.50
2019-04-11T07:46:25.159Z,3.60
2019-04-11T07:49:08.144Z,3.50
2019-04-11T07:51:48.675Z,3.50
2019-04-11T07:54:22.208Z,3.60
2019-04-11T07:57:10.674Z,3.60
2019-04-11T08:00:00.234Z,3.50
2019-04-11T08:02:48.599Z,3.70
2019-04-11T08:05:54.426Z,3.70
2019-04-11T08:08:43.344Z,3.50
2019-04-11T08:11:21.252Z,3.40
2019-04-11T08:14:04.246Z,3.50
2019-04-11T08:16:53.281Z,3.50
2019-04-11T08:19:42.760Z,3.60
2019-04-11T08:22:30.879Z,3.70
2019-04-11T08:25:38.329Z,3.70
2019-04-11T08:28:13.586Z,3.70
2019-04-11T08:31:07.778Z,3.90
2019-04-11T08:33:38.507Z,3.80
2019-04-11T08:36:26.896Z,3.70
2019-04-11T08:38:58.532Z,3.80
2019-04-11T08:41:49.662Z,3.90
2019-04-11T08:44:24.473Z,3.80
2019-04-11T08:47:00.900Z,4.00
2019-04-11T08:49:39.627Z,4.20
2019-04-11T08:52:20.928Z,4.20
2019-04-11T08:55:08.731Z,4.40
2019-04-11T08:57:45.009Z,4.30
2019-04-11T09:00:44.201Z,4.40
2019-04-11T09:03:58.193Z,4.50
2019-04-11T09:06:28.359Z,4.60
2019-04-11T09:09:36.820Z,4.60
2019-04-11T09:12:11.999Z,4.60
2019-04-11T09:15:02.557Z,4.60
2019-04-11T09:17:37.261Z,4.80
2019-04-11T09:20:29.973Z,4.80
2019-04-11T09:23:09.290Z,4.90
2019-04-11T09:25:57.739Z,4.90
2019-04-11T09:28:40.276Z,5.10
2019-04-11T09:31:42.176Z,5.20
2019-04-11T09:34:30.903Z,5.30
2019-04-11T09:37:32.307Z,5.50
2019-04-11T09:40:26.048Z,5.50
2019-04-11T09:43:22.552Z,5.60
2019-04-11T09:46:10.674Z,5.60
2019-04-11T09:49:09.173Z,5.60
2019-04-11T09:51:47.776Z,5.50
2019-04-11T09:54:40.137Z,5.70
2019-04-11T09:57:36.488Z,5.80
2019-04-11T10:00:28.867Z,6.00
2019-04-11T10:03:13.213Z,6.10
2019-04-11T10:05:54.562Z,6.30
2019-04-11T10:08:39.614Z,6.20
2019-04-11T10:11:28.238Z,6.20
2019-04-11T10:14:09.578Z,6.10
2019-04-11T10:16:58.212Z,6.20
2019-04-11T10:19:46.693Z,6.50
2019-04-11T10:22:48.554Z,6.50
2019-04-11T10:25:32.059Z,6.40
2019-04-11T10:28:21.825Z,6.40
2019-04-11T10:31:10.664Z,6.50
2019-04-11T10:33:51.706Z,6.60
2019-04-11T10:36:27.372Z,6.80
2019-04-11T10:39:08.995Z,7.00
2019-04-11T10:41:40.483Z,6.80
2019-04-11T10:44:11.754Z,6.70
2019-04-11T10:46:59.840Z,6.70
2019-04-11T10:49:47.967Z,6.90
2019-04-11T10:52:26.676Z,6.90
2019-04-11T10:55:19.765Z,7.00
2019-04-11T10:58:08.806Z,7.00
2019-04-11T11:00:43.558Z,6.80
2019-04-11T11:03:22.257Z,6.70
2019-04-11T11:05:55.520Z,6.60
2019-04-11T11:08:33.375Z,6.70
2019-04-11T11:11:16.017Z,6.90
2019-04-11T11:14:22.709Z,6.80
2019-04-11T11:17:43.245Z,6.90
2019-04-11T11:20:16.736Z,7.20
2019-04-11T11:23:02.870Z,7.40
2019-04-11T11:25:51.618Z,7.30
2019-04-11T11:28:23.794Z,7.30
2019-04-11T11:31:07.440Z,7.40
2019-04-11T11:33:38.560Z,7.30
2019-04-11T11:36:27.281Z,7.40
2019-04-11T11:39:20.115Z,7.40
2019-04-11T11:42:02.148Z,7.60
2019-04-11T11:44:42.926Z,7.70
2019-04-11T11:47:35.659Z,7.80
2019-04-11T11:50:06.005Z,7.60
2019-04-11T11:53:08.156Z,7.70
2019-04-11T11:55:38.461Z,7.60
2019-04-11T11:58:35.305Z,7.40
2019-04-11T12:01:08.959Z,7.60
2019-04-11T12:04:06.817Z,7.80
2019-04-11T12:06:38.775Z,7.80
2019-04-11T12:09:28.833Z,7.50
2019-04-11T12:12:04.362Z,7.50
2019-04-11T12:14:53.951Z,7.60
2019-04-11T12:17:44.904Z,7.60
2019-04-11T12:20:22.958Z,7.40
2019-04-11T12:22:54.140Z,7.40
2019-04-11T12:25:33.424Z,7.40
2019-04-11T12:28:14.665Z,7.40
2019-04-11T12:30:45.414Z,7.30
2019-04-11T12:33:50.065Z,7.20
2019-04-11T12:36:23.926Z,7.30
2019-04-11T12:39:13.417Z,7.10
2019-04-11T12:41:55.599Z,7.00
2019-04-11T12:44:51.326Z,7.20
2019-04-11T12:47:33.878Z,7.30
2019-04-11T12:50:29.959Z,7.20
2019-04-11T12:53:20.449Z,7.30
2019-04-11T12:56:28.347Z,7.30
2019-04-11T12:59:04.318Z,7.50
2019-04-11T13:01:52.562Z,7.30
2019-04-11T13:04:44.103Z,7.30
2019-04-11T13:07:34.181Z,7.40
2019-04-11T13:10:26.426Z,7.30
2019-04-11T13:13:18.760Z,7.40
2019-04-11T13:15:59.080Z,7.40
2019-04-11T13:18:45.406Z,7.00
2019-04-11T13:21:25.415Z,7.10
2019-04-11T13:24:05.927Z,7.20
2019-04-11T13:27:04.620Z,7.00
2019-04-11T13:29:54.182Z,7.20
2019-04-11T13:32:32.607Z,7.10
2019-04-11T13:35:22.018Z,7.00
2019-04-11T13:38:14.141Z,7.00
2019-04-11T13:41:03.646Z,7.00
2019-04-11T13:43:45.778Z,7.10
2019-04-11T13:46:47.421Z,7.00
2019-04-11T13:49:37.083Z,7.20
2019-04-11T13:52:26.716Z,7.30
2019-04-11T13:55:15.824Z,7.30
2019-04-11T13:58:07.060Z,7.30
2019-04-11T14:00:40.156Z,7.20
2019-04-11T14:03:48.746Z,7.20
2019-04-11T14:06:26.630Z,7.30
2019-04-11T14:09:08.937Z,7.40
2019-04-11T14:11:43.626Z,7.60
2019-04-11T14:14:19.766Z,7.80
2019-04-11T14:17:00.370Z,7.70
2019-04-11T14:20:02.004Z,7.60
2019-04-11T14:22:45.256Z,7.70
2019-04-11T14:25:44.013Z,7.70
2019-04-11T14:28:14.868Z,7.60
2019-04-11T14:31:07.171Z,7.50
2019-04-11T14:33:38.978Z,7.50
2019-04-11T14:36:33.419Z,7.60
2019-04-11T14:39:01.056Z,7.70
2019-04-11T14:41:45.246Z,7.70
2019-04-11T14:44:16.473Z,7.60
2019-04-11T14:47:15.926Z,7.60
2019-04-11T14:49:49.253Z,7.80
2019-04-11T14:52:37.600Z,7.60
2019-04-11T14:55:08.759Z,7.60
2019-04-11T14:57:55.790Z,7.60
2019-04-11T15:00:37.952Z,7.60
2019-04-11T15:03:45.785Z,7.70
2019-04-11T15:06:35.280Z,7.50
2019-04-11T15:09:29.316Z,7.30
2019-04-11T15:12:20.568Z,7.20
2019-04-11T15:15:22.461Z,7.20
2019-04-11T15:18:03.268Z,7.30
2019-04-11T15:20:55.995Z,7.30
2019-04-11T15:23:32.150Z,7.30
2019-04-11T15:26:19.850Z,7.30
2019-04-11T15:28:56.138Z,7.30
2019-04-11T15:31:54.696Z,7.20
2019-04-11T15:34:37.434Z,7.20
2019-04-11T15:37:30.211Z,7.20
2019-04-11T15:40:28.725Z,7.00
2019-04-11T15:43:16.877Z,7.00
2019-04-11T15:45:58.258Z,6.90
2019-04-11T15:48:51.665Z,6.80
2019-04-11T15:51:57.142Z,6.90
2019-04-11T15:54:46.589Z,6.90
2019-04-11T15:57:30.363Z,6.90
2019-04-11T16:00:29.031Z,7.00
2019-04-11T16:03:18.889Z,6.90
2019-04-11T16:06:07.230Z,6.80
2019-04-11T16:08:43.736Z,6.80
2019-04-11T16:11:51.836Z,6.80
2019-04-11T16:14:28.206Z,6.80
2019-04-11T16:17:36.273Z,6.70
2019-04-11T16:20:27.074Z,6.70
2019-04-11T16:23:26.964Z,6.80
2019-04-11T16:26:00.012Z,6.70
2019-04-11T16:28:52.349Z,6.60
2019-04-11T16:31:29.504Z,6.60
2019-04-11T16:34:22.146Z,6.60
2019-04-11T16:36:55.320Z,6.50
2019-04-11T16:39:55.147Z,6.50
2019-04-11T16:42:35.591Z,6.50
2019-04-11T16:45:39.121Z,6.50
2019-04-11T16:48:09.719Z,6.40
2019-04-11T16:50:41.514Z,6.40
2019-04-11T16:53:12.126Z,6.40
2019-04-11T16:55:43.587Z,6.30
2019-04-11T16:58:17.002Z,6.30
2019-04-11T17:00:52.243Z,6.20
2019-04-11T17:03:19.111Z,6.20
2019-04-11T17:05:57.420Z,6.20
2019-04-11T17:08:35.378Z,6.10
2019-04-11T17:11:21.040Z,6.10
2019-04-11T17:13:51.599Z,5.90
2019-04-11T17:16:22.704Z,5.90
2019-04-11T17:18:53.274Z,5.90
2019-04-11T17:21:23.750Z,5.80
2019-04-11T17:23:54.432Z,5.80
2019-04-11T17:26:25.078Z,5.80
2019-04-11T17:28:55.546Z,5.70
2019-04-11T17:31:27.095Z,5.70
2019-04-11T17:34:01.447Z,5.60
2019-04-11T17:36:32.741Z,5.60
2019-04-11T17:39:02.084Z,5.60
2019-04-11T17:41:34.198Z,5.50
2019-04-11T17:44:09.436Z,5.50
2019-04-11T17:46:42.679Z,5.40
2019-04-11T17:49:13.271Z,5.40
2019-04-11T17:51:54.944Z,5.30
2019-04-11T17:54:16.970Z,5.30
2019-04-11T17:56:47.512Z,5.30
2019-04-11T17:59:18.061Z,5.30
2019-04-11T18:01:48.522Z,5.20
2019-04-11T18:04:19.077Z,5.20
2019-04-11T18:06:49.683Z,5.20
2019-04-11T18:09:25.585Z,5.20
2019-04-11T18:11:55.901Z,5.10
2019-04-11T18:14:24.693Z,5.10
2019-04-11T18:16:55.209Z,5.10
2019-04-11T18:19:25.831Z,5.10
2019-04-11T18:22:07.395Z,5.00
2019-04-11T18:24:28.592Z,5.00
2019-04-11T18:26:59.096Z,4.90
2019-04-11T18:29:29.624Z,4.90
2019-04-11T18:32:00.257Z,4.90
2019-04-11T18:34:31.710Z,4.90
2019-04-11T18:37:04.371Z,4.80
2019-04-11T18:39:36.073Z,4.80
2019-04-11T18:42:07.395Z,4.80
2019-04-11T18:44:38.064Z,4.80
2019-04-11T18:47:08.616Z,4.70
2019-04-11T18:49:39.297Z,4.70
2019-04-11T18:52:19.710Z,4.70
2019-04-11T18:54:43.282Z,4.70
2019-04-11T18:57:13.814Z,4.70
2019-04-11T18:59:44.356Z,4.70
2019-04-11T19:02:14.899Z,4.70
2019-04-11T19:04:45.549Z,4.70
2019-04-11T19:07:27.300Z,4.70
2019-04-11T19:09:50.999Z,4.70
2019-04-11T19:12:21.556Z,4.70
2019-04-11T19:14:54.449Z,4.60
2019-04-11T19:17:26.944Z,4.60
2019-04-11T19:19:57.467Z,4.60
2019-04-11T19:22:37.678Z,4.60
2019-04-11T19:25:00.035Z,4.50
2019-04-11T19:27:30.537Z,4.50
2019-04-11T19:30:01.091Z,4.40
2019-04-11T19:32:31.717Z,4.40
2019-04-11T19:35:02.219Z,4.40
2019-04-11T19:37:32.814Z,4.40
2019-04-11T19:40:05.650Z,4.30
2019-04-11T19:42:37.257Z,4.30
2019-04-11T19:45:08.834Z,4.20
2019-04-11T19:47:39.582Z,4.10
2019-04-11T19:50:11.570Z,4.10
2019-04-11T19:52:45.868Z,4.00
2019-04-11T19:55:42.572Z,4.00
2019-04-11T19:58:13.105Z,3.90
2019-04-11T20:00:43.771Z,3.90
2019-04-11T20:03:15.369Z,3.80
2019-04-11T20:05:47.230Z,3.80
2019-04-11T20:08:17.849Z,3.80
2019-04-11T20:10:48.314Z,3.70
2019-04-11T20:13:18.995Z,3.70
2019-04-11T20:15:50.661Z,3.60
2019-04-11T20:18:23.318Z,3.60
2019-04-11T20:20:54.226Z,3.60
2019-04-11T20:23:25.832Z,3.60
2019-04-11T20:25:58.422Z,3.60
2019-04-11T20:28:28.995Z,3.50
2019-04-11T20:31:01.075Z,3.50
2019-04-11T20:33:34.727Z,3.50
2019-04-11T20:36:05.505Z,3.40
2019-04-11T20:38:36.063Z,3.40
2019-04-11T20:41:06.460Z,3.40
2019-04-11T20:43:37.170Z,3.30
2019-04-11T20:46:07.733Z,3.20
2019-04-11T20:48:38.281Z,3.20
2019-04-11T20:51:08.776Z,3.20
2019-04-11T20:53:39.216Z,3.20
2019-04-11T20:56:10.610Z,3.20
2019-04-11T20:58:41.267Z,3.10
2019-04-11T21:01:11.773Z,3.10
2019-04-11T21:03:42.255Z,3.10
2019-04-11T21:06:12.928Z,3.10
2019-04-11T21:08:43.383Z,3.10
2019-04-11T21:11:13.897Z,3.10
2019-04-11T21:13:44.399Z,3.00
2019-04-11T21:16:14.894Z,3.00
2019-04-11T21:18:45.336Z,3.00
2019-04-11T21:21:15.745Z,3.00
2019-04-11T21:23:46.211Z,2.90
2019-04-11T21:26:16.651Z,2.90
2019-04-11T21:28:47.126Z,2.90
2019-04-11T21:31:17.578Z,2.90
2019-04-11T21:33:48.073Z,2.90
2019-04-11T21:36:18.548Z,2.90
2019-04-11T21:38:48.944Z,2.90
2019-04-11T21:41:19.396Z,2.90
2019-04-11T21:43:49.910Z,2.90
2019-04-11T21:46:20.337Z,2.90
2019-04-11T21:48:50.818Z,2.90
2019-04-11T21:51:21.292Z,2.90
2019-04-11T21:53:51.747Z,2.90
2019-04-11T21:56:22.269Z,2.90
2019-04-11T21:58:52.666Z,2.90
2019-04-11T22:01:24.872Z,2.90
2019-04-11T22:03:57.712Z,2.90
2019-04-11T22:06:30.326Z,2.90
2019-04-11T22:09:00.271Z,2.90
2019-04-11T22:11:33.373Z,2.90
2019-04-11T22:14:03.884Z,2.90
2019-04-11T22:16:34.451Z,2.80
2019-04-11T22:19:05.338Z,2.80
2019-04-11T22:21:35.839Z,2.80
2019-04-11T22:24:06.449Z,2.90
2019-04-11T22:26:37.009Z,2.80
2019-04-11T22:29:07.508Z,2.80
2019-04-11T22:31:37.961Z,2.80
2019-04-11T22:34:17.116Z,2.80
2019-04-11T22:36:47.681Z,2.80
2019-04-11T22:39:18.295Z,2.80
2019-04-11T22:41:48.735Z,2.80
2019-04-11T22:44:21.675Z,2.80
2019-04-11T22:46:52.234Z,2.80
2019-04-11T22:49:22.718Z,2.80
2019-04-11T22:51:53.153Z,2.80
2019-04-11T22:54:23.609Z,2.80
2019-04-11T22:56:54.631Z,2.80
2019-04-11T22:59:25.065Z,2.80
2019-04-11T23:01:57.024Z,2.80
2019-04-11T23:04:27.556Z,2.80
2019-04-11T23:06:57.976Z,2.80
2019-04-11T23:09:28.457Z,2.70
2019-04-11T23:12:00.463Z,2.70
2019-04-11T23:14:31.119Z,2.70
2019-04-11T23:17:01.580Z,2.70
2019-04-11T23:19:32.007Z,2.70
2019-04-11T23:22:02.525Z,2.70
2019-04-11T23:24:33.027Z,2.70
2019-04-11T23:27:03.545Z,2.70
2019-04-11T23:29:34.034Z,2.60
2019-04-11T23:32:04.603Z,2.60
2019-04-11T23:34:35.160Z,2.70
2019-04-11T23:37:05.656Z,2.60
2019-04-11T23:39:36.213Z,2.60
2019-04-11T23:42:06.586Z,2.60
2019-04-11T23:44:37.087Z,2.60
2019-04-11T23:47:08.651Z,2.60
2019-04-11T23:49:39.204Z,2.60
2019-04-11T23:52:09.638Z,2.60
2019-04-11T23:54:40.268Z,2.50
2019-04-11T23:57:10.774Z,2.50
2019-04-11T23:59:41.346Z,2.50
